sensor_id;sensor_type;location;lat;lon;timestamp;P1;durP1;ratioP1;P2;durP2;ratioP2
62915;SDS011;49010;51.230;-2.306;2022-08-19T00:01:16;0.80;;;0.30;;
62915;SDS011;49010;51.230;-2.306;2022-08-19T00:05:09;1.35;;;0.30;;
62915;SDS011;49010;51.230;-2.306;2022-08-19T00:08:52;0.50;;;0.30;;
62915;SDS011;49010;51.230;-2.306;2022-08-19T00:12:34;0.63;;;0.15;;
62915;SDS011;49010;51.230;-2.306;2022-08-19T00:16:27;0.22;;;0.20;;
62915;SDS011;49010;51.230;-2.306;2022-08-19T00:20:10;1.08;;;0.20;;
62915;SDS011;49010;51.230;-2.306;2022-08-19T00:23:54;0.32;;;0.20;;
62915;SDS011;49010;51.230;-2.306;2022-08-19T00:27:39;1.25;;;0.20;;
62915;SDS011;49010;51.230;-2.306;2022-08-19T00:31:22;1.20;;;0.20;;
62915;SDS011;49010;51.230;-2.306;2022-08-19T00:35:04;0.65;;;0.30;;
62915;SDS011;49010;51.230;-2.306;2022-08-19T00:38:46;0.77;;;0.20;;
62915;SDS011;49010;51.230;-2.306;2022-08-19T00:42:28;0.60;;;0.20;;
62915;SDS011;49010;51.230;-2.306;2022-08-19T00:46:10;0.60;;;0.30;;
62915;SDS011;49010;51.230;-2.306;2022-08-19T00:49:53;0.10;;;0.10;;
62915;SDS011;49010;51.230;-2.306;2022-08-19T00:53:39;0.30;;;0.20;;
62915;SDS011;49010;51.230;-2.306;2022-08-19T00:57:23;0.20;;;0.20;;
62915;SDS011;49010;51.230;-2.306;2022-08-19T01:01:11;1.45;;;0.30;;
62915;SDS011;49010;51.230;-2.306;2022-08-19T01:04:55;0.30;;;0.30;;
62915;SDS011;49010;51.230;-2.306;2022-08-19T01:08:37;0.32;;;0.10;;
62915;SDS011;49010;51.230;-2.306;2022-08-19T01:12:19;0.30;;;0.13;;
62915;SDS011;49010;51.230;-2.306;2022-08-19T01:16:06;0.60;;;0.30;;
62915;SDS011;49010;51.230;-2.306;2022-08-19T01:19:51;0.20;;;0.20;;
62915;SDS011;49010;51.230;-2.306;2022-08-19T01:23:33;0.40;;;0.10;;
62915;SDS011;49010;51.230;-2.306;2022-08-19T01:27:24;0.32;;;0.17;;
62915;SDS011;49010;51.230;-2.306;2022-08-19T01:31:07;0.45;;;0.20;;
62915;SDS011;49010;51.230;-2.306;2022-08-19T01:35:07;1.63;;;0.35;;
62915;SDS011;49010;51.230;-2.306;2022-08-19T01:38:50;0.77;;;0.35;;
62915;SDS011;49010;51.230;-2.306;2022-08-19T01:42:32;2.65;;;0.30;;
62915;SDS011;49010;51.230;-2.306;2022-08-19T01:46:14;1.25;;;0.30;;
62915;SDS011;49010;51.230;-2.306;2022-08-19T01:49:57;0.77;;;0.25;;
62915;SDS011;49010;51.230;-2.306;2022-08-19T01:53:40;0.40;;;0.20;;
62915;SDS011;49010;51.230;-2.306;2022-08-19T01:57:22;1.17;;;0.20;;
62915;SDS011;49010;51.230;-2.306;2022-08-19T02:01:05;0.63;;;0.28;;
62915;SDS011;49010;51.230;-2.306;2022-08-19T02:04:47;1.65;;;0.20;;
62915;SDS011;49010;51.230;-2.306;2022-08-19T02:08:30;0.30;;;0.20;;
62915;SDS011;49010;51.230;-2.306;2022-08-19T02:12:13;2.22;;;0.45;;
62915;SDS011;49010;51.230;-2.306;2022-08-19T02:15:55;0.40;;;0.10;;
62915;SDS011;49010;51.230;-2.306;2022-08-19T02:19:37;2.40;;;0.47;;
62915;SDS011;49010;51.230;-2.306;2022-08-19T02:23:21;1.58;;;0.22;;
62915;SDS011;49010;51.230;-2.306;2022-08-19T02:27:03;0.52;;;0.30;;
62915;SDS011;49010;51.230;-2.306;2022-08-19T02:30:46;0.75;;;0.50;;
62915;SDS011;49010;51.230;-2.306;2022-08-19T02:34:28;1.77;;;0.30;;
62915;SDS011;49010;51.230;-2.306;2022-08-19T02:38:10;3.60;;;0.50;;
62915;SDS011;49010;51.230;-2.306;2022-08-19T02:42:07;0.80;;;0.30;;
62915;SDS011;49010;51.230;-2.306;2022-08-19T02:45:49;1.55;;;0.40;;
62915;SDS011;49010;51.230;-2.306;2022-08-19T02:49:32;0.98;;;0.30;;
62915;SDS011;49010;51.230;-2.306;2022-08-19T02:53:15;3.35;;;0.50;;
62915;SDS011;49010;51.230;-2.306;2022-08-19T02:56:56;1.10;;;0.35;;
62915;SDS011;49010;51.230;-2.306;2022-08-19T03:00:46;2.15;;;0.68;;
62915;SDS011;49010;51.230;-2.306;2022-08-19T03:04:30;2.90;;;0.55;;
62915;SDS011;49010;51.230;-2.306;2022-08-19T03:08:12;3.22;;;0.60;;
62915;SDS011;49010;51.230;-2.306;2022-08-19T03:11:54;1.25;;;0.65;;
62915;SDS011;49010;51.230;-2.306;2022-08-19T03:15:40;3.35;;;0.88;;
62915;SDS011;49010;51.230;-2.306;2022-08-19T03:23:05;2.38;;;0.70;;
62915;SDS011;49010;51.230;-2.306;2022-08-19T03:26:48;3.83;;;1.10;;
62915;SDS011;49010;51.230;-2.306;2022-08-19T03:30:33;1.20;;;0.55;;
62915;SDS011;49010;51.230;-2.306;2022-08-19T03:34:17;2.13;;;0.85;;
62915;SDS011;49010;51.230;-2.306;2022-08-19T03:38:07;4.30;;;1.42;;
62915;SDS011;49010;51.230;-2.306;2022-08-19T03:41:49;5.60;;;1.42;;
62915;SDS011;49010;51.230;-2.306;2022-08-19T03:45:59;3.88;;;1.25;;
62915;SDS011;49010;51.230;-2.306;2022-08-19T03:49:42;3.47;;;1.05;;
62915;SDS011;49010;51.230;-2.306;2022-08-19T03:53:25;6.55;;;1.20;;
62915;SDS011;49010;51.230;-2.306;2022-08-19T03:57:08;5.38;;;1.00;;
62915;SDS011;49010;51.230;-2.306;2022-08-19T04:00:50;7.95;;;1.50;;
62915;SDS011;49010;51.230;-2.306;2022-08-19T04:04:32;7.75;;;1.60;;
62915;SDS011;49010;51.230;-2.306;2022-08-19T04:08:15;9.07;;;1.52;;
62915;SDS011;49010;51.230;-2.306;2022-08-19T04:12:00;6.13;;;1.58;;
62915;SDS011;49010;51.230;-2.306;2022-08-19T04:15:42;7.05;;;1.80;;
62915;SDS011;49010;51.230;-2.306;2022-08-19T04:19:26;6.15;;;1.60;;
62915;SDS011;49010;51.230;-2.306;2022-08-19T04:23:11;6.95;;;2.05;;
62915;SDS011;49010;51.230;-2.306;2022-08-19T04:26:54;10.48;;;1.88;;
62915;SDS011;49010;51.230;-2.306;2022-08-19T04:30:39;7.43;;;1.83;;
62915;SDS011;49010;51.230;-2.306;2022-08-19T04:34:26;10.27;;;2.85;;
62915;SDS011;49010;51.230;-2.306;2022-08-19T04:38:10;9.05;;;2.20;;
62915;SDS011;49010;51.230;-2.306;2022-08-19T04:41:52;8.70;;;2.25;;
62915;SDS011;49010;51.230;-2.306;2022-08-19T04:45:52;8.10;;;1.95;;
62915;SDS011;49010;51.230;-2.306;2022-08-19T04:49:41;7.63;;;1.80;;
62915;SDS011;49010;51.230;-2.306;2022-08-19T04:53:29;8.05;;;2.72;;
62915;SDS011;49010;51.230;-2.306;2022-08-19T04:57:18;13.85;;;3.03;;
62915;SDS011;49010;51.230;-2.306;2022-08-19T05:01:00;8.05;;;2.72;;
62915;SDS011;49010;51.230;-2.306;2022-08-19T05:04:42;15.60;;;3.00;;
62915;SDS011;49010;51.230;-2.306;2022-08-19T05:08:23;8.32;;;2.10;;
62915;SDS011;49010;51.230;-2.306;2022-08-19T05:12:11;9.73;;;2.80;;
62915;SDS011;49010;51.230;-2.306;2022-08-19T05:15:55;14.18;;;2.78;;
62915;SDS011;49010;51.230;-2.306;2022-08-19T05:19:39;12.33;;;2.87;;
62915;SDS011;49010;51.230;-2.306;2022-08-19T05:23:39;7.43;;;2.05;;
62915;SDS011;49010;51.230;-2.306;2022-08-19T05:27:22;10.77;;;2.63;;
62915;SDS011;49010;51.230;-2.306;2022-08-19T05:31:04;12.43;;;2.35;;
62915;SDS011;49010;51.230;-2.306;2022-08-19T05:34:46;7.90;;;2.72;;
62915;SDS011;49010;51.230;-2.306;2022-08-19T05:38:27;7.97;;;2.50;;
62915;SDS011;49010;51.230;-2.306;2022-08-19T05:42:11;9.82;;;2.15;;
62915;SDS011;49010;51.230;-2.306;2022-08-19T05:45:54;11.15;;;2.78;;
62915;SDS011;49010;51.230;-2.306;2022-08-19T05:49:36;10.27;;;3.03;;
62915;SDS011;49010;51.230;-2.306;2022-08-19T05:53:18;11.50;;;2.40;;
62915;SDS011;49010;51.230;-2.306;2022-08-19T05:57:01;12.23;;;3.08;;
62915;SDS011;49010;51.230;-2.306;2022-08-19T06:00:43;8.00;;;2.28;;
62915;SDS011;49010;51.230;-2.306;2022-08-19T06:04:26;9.75;;;2.42;;
62915;SDS011;49010;51.230;-2.306;2022-08-19T06:08:08;11.57;;;2.92;;
62915;SDS011;49010;51.230;-2.306;2022-08-19T06:11:51;9.43;;;2.35;;
62915;SDS011;49010;51.230;-2.306;2022-08-19T06:15:36;9.10;;;2.50;;
62915;SDS011;49010;51.230;-2.306;2022-08-19T06:19:19;11.18;;;2.63;;
62915;SDS011;49010;51.230;-2.306;2022-08-19T06:23:03;9.48;;;2.20;;
62915;SDS011;49010;51.230;-2.306;2022-08-19T06:26:46;23.77;;;3.35;;
62915;SDS011;49010;51.230;-2.306;2022-08-19T06:30:29;11.10;;;1.98;;
62915;SDS011;49010;51.230;-2.306;2022-08-19T06:34:11;10.10;;;2.65;;
62915;SDS011;49010;51.230;-2.306;2022-08-19T06:37:53;16.35;;;3.58;;
62915;SDS011;49010;51.230;-2.306;2022-08-19T06:41:40;9.82;;;2.78;;
62915;SDS011;49010;51.230;-2.306;2022-08-19T06:45:30;12.45;;;3.45;;
62915;SDS011;49010;51.230;-2.306;2022-08-19T06:49:16;8.18;;;2.30;;
62915;SDS011;49010;51.230;-2.306;2022-08-19T06:52:59;11.00;;;2.30;;
62915;SDS011;49010;51.230;-2.306;2022-08-19T06:56:44;9.30;;;2.47;;
62915;SDS011;49010;51.230;-2.306;2022-08-19T07:00:26;11.27;;;3.33;;
62915;SDS011;49010;51.230;-2.306;2022-08-19T07:04:09;9.45;;;2.58;;
62915;SDS011;49010;51.230;-2.306;2022-08-19T07:07:52;7.13;;;2.47;;
62915;SDS011;49010;51.230;-2.306;2022-08-19T07:11:38;10.68;;;3.00;;
62915;SDS011;49010;51.230;-2.306;2022-08-19T07:19:06;8.00;;;2.40;;
62915;SDS011;49010;51.230;-2.306;2022-08-19T07:22:56;11.02;;;1.92;;
62915;SDS011;49010;51.230;-2.306;2022-08-19T07:26:39;7.40;;;2.28;;
62915;SDS011;49010;51.230;-2.306;2022-08-19T07:30:22;8.48;;;2.00;;
62915;SDS011;49010;51.230;-2.306;2022-08-19T07:34:07;6.63;;;1.90;;
62915;SDS011;49010;51.230;-2.306;2022-08-19T07:37:50;7.07;;;1.77;;
62915;SDS011;49010;51.230;-2.306;2022-08-19T07:41:31;7.07;;;2.05;;
62915;SDS011;49010;51.230;-2.306;2022-08-19T07:45:15;8.88;;;1.95;;
62915;SDS011;49010;51.230;-2.306;2022-08-19T07:48:57;8.77;;;2.47;;
62915;SDS011;49010;51.230;-2.306;2022-08-19T07:52:40;5.80;;;1.98;;
62915;SDS011;49010;51.230;-2.306;2022-08-19T07:56:22;8.13;;;1.95;;
62915;SDS011;49010;51.230;-2.306;2022-08-19T08:00:04;6.90;;;2.15;;
62915;SDS011;49010;51.230;-2.306;2022-08-19T08:03:47;8.75;;;1.80;;
62915;SDS011;49010;51.230;-2.306;2022-08-19T08:07:49;6.72;;;1.77;;
62915;SDS011;49010;51.230;-2.306;2022-08-19T08:11:51;5.70;;;1.90;;
62915;SDS011;49010;51.230;-2.306;2022-08-19T08:15:45;11.02;;;2.22;;
62915;SDS011;49010;51.230;-2.306;2022-08-19T08:19:27;9.23;;;1.88;;
62915;SDS011;49010;51.230;-2.306;2022-08-19T08:23:09;7.38;;;2.10;;
62915;SDS011;49010;51.230;-2.306;2022-08-19T08:27:04;6.65;;;2.05;;
62915;SDS011;49010;51.230;-2.306;2022-08-19T08:30:51;10.60;;;2.67;;
62915;SDS011;49010;51.230;-2.306;2022-08-19T08:34:33;10.00;;;2.08;;
62915;SDS011;49010;51.230;-2.306;2022-08-19T08:38:15;7.82;;;1.75;;
62915;SDS011;49010;51.230;-2.306;2022-08-19T08:42:07;5.13;;;1.95;;
62915;SDS011;49010;51.230;-2.306;2022-08-19T08:50:27;7.82;;;2.13;;
62915;SDS011;49010;51.230;-2.306;2022-08-19T08:54:20;10.50;;;2.10;;
62915;SDS011;49010;51.230;-2.306;2022-08-19T08:58:07;9.02;;;1.85;;
62915;SDS011;49010;51.230;-2.306;2022-08-19T09:01:57;6.53;;;1.70;;
62915;SDS011;49010;51.230;-2.306;2022-08-19T09:05:41;10.82;;;2.30;;
62915;SDS011;49010;51.230;-2.306;2022-08-19T09:09:51;8.20;;;2.00;;
62915;SDS011;49010;51.230;-2.306;2022-08-19T09:14:01;9.73;;;1.92;;
62915;SDS011;49010;51.230;-2.306;2022-08-19T09:18:15;10.25;;;1.90;;
62915;SDS011;49010;51.230;-2.306;2022-08-19T09:21:59;6.53;;;1.95;;
62915;SDS011;49010;51.230;-2.306;2022-08-19T09:25:41;6.63;;;1.60;;
62915;SDS011;49010;51.230;-2.306;2022-08-19T09:29:23;11.43;;;2.38;;
62915;SDS011;49010;51.230;-2.306;2022-08-19T09:33:05;7.22;;;1.83;;
62915;SDS011;49010;51.230;-2.306;2022-08-19T09:36:48;9.02;;;2.28;;
62915;SDS011;49010;51.230;-2.306;2022-08-19T09:40:35;9.77;;;1.80;;
62915;SDS011;49010;51.230;-2.306;2022-08-19T09:44:18;6.15;;;1.80;;
62915;SDS011;49010;51.230;-2.306;2022-08-19T09:48:07;8.27;;;1.90;;
62915;SDS011;49010;51.230;-2.306;2022-08-19T09:51:50;6.45;;;1.88;;
62915;SDS011;49010;51.230;-2.306;2022-08-19T09:55:33;4.50;;;1.02;;
62915;SDS011;49010;51.230;-2.306;2022-08-19T09:59:15;6.35;;;1.75;;
62915;SDS011;49010;51.230;-2.306;2022-08-19T10:02:56;5.65;;;1.85;;
62915;SDS011;49010;51.230;-2.306;2022-08-19T10:06:39;5.28;;;1.60;;
62915;SDS011;49010;51.230;-2.306;2022-08-19T10:10:26;7.00;;;1.63;;
62915;SDS011;49010;51.230;-2.306;2022-08-19T10:14:08;7.65;;;1.88;;
62915;SDS011;49010;51.230;-2.306;2022-08-19T10:17:50;8.40;;;2.08;;
62915;SDS011;49010;51.230;-2.306;2022-08-19T10:21:35;5.93;;;1.87;;
62915;SDS011;49010;51.230;-2.306;2022-08-19T10:25:20;6.73;;;1.60;;
62915;SDS011;49010;51.230;-2.306;2022-08-19T10:29:03;9.55;;;2.10;;
62915;SDS011;49010;51.230;-2.306;2022-08-19T10:32:49;5.60;;;1.52;;
62915;SDS011;49010;51.230;-2.306;2022-08-19T10:36:32;5.47;;;1.77;;
62915;SDS011;49010;51.230;-2.306;2022-08-19T10:44:17;4.78;;;1.73;;
62915;SDS011;49010;51.230;-2.306;2022-08-19T10:48:00;7.15;;;2.15;;
62915;SDS011;49010;51.230;-2.306;2022-08-19T10:51:42;5.13;;;1.60;;
62915;SDS011;49010;51.230;-2.306;2022-08-19T10:55:44;6.18;;;1.75;;
62915;SDS011;49010;51.230;-2.306;2022-08-19T10:59:44;6.78;;;1.83;;
62915;SDS011;49010;51.230;-2.306;2022-08-19T11:03:26;5.97;;;1.58;;
62915;SDS011;49010;51.230;-2.306;2022-08-19T11:07:12;5.47;;;1.63;;
62915;SDS011;49010;51.230;-2.306;2022-08-19T11:10:54;8.07;;;1.83;;
62915;SDS011;49010;51.230;-2.306;2022-08-19T11:14:38;7.13;;;2.10;;
62915;SDS011;49010;51.230;-2.306;2022-08-19T11:18:21;6.22;;;2.03;;
62915;SDS011;49010;51.230;-2.306;2022-08-19T11:22:03;6.20;;;1.70;;
62915;SDS011;49010;51.230;-2.306;2022-08-19T11:25:45;8.00;;;2.28;;
62915;SDS011;49010;51.230;-2.306;2022-08-19T11:29:27;6.95;;;1.80;;
62915;SDS011;49010;51.230;-2.306;2022-08-19T11:33:10;5.90;;;1.70;;
62915;SDS011;49010;51.230;-2.306;2022-08-19T11:36:52;5.32;;;1.60;;
62915;SDS011;49010;51.230;-2.306;2022-08-19T11:40:35;4.28;;;1.80;;
62915;SDS011;49010;51.230;-2.306;2022-08-19T11:44:17;6.53;;;2.00;;
62915;SDS011;49010;51.230;-2.306;2022-08-19T11:47:59;6.38;;;2.08;;
62915;SDS011;49010;51.230;-2.306;2022-08-19T11:51:41;4.93;;;1.88;;
62915;SDS011;49010;51.230;-2.306;2022-08-19T11:55:24;6.97;;;1.85;;
62915;SDS011;49010;51.230;-2.306;2022-08-19T11:59:06;7.10;;;1.50;;
62915;SDS011;49010;51.230;-2.306;2022-08-19T12:02:54;4.13;;;1.13;;
62915;SDS011;49010;51.230;-2.306;2022-08-19T12:06:37;4.75;;;1.77;;
62915;SDS011;49010;51.230;-2.306;2022-08-19T12:10:20;4.78;;;1.35;;
62915;SDS011;49010;51.230;-2.306;2022-08-19T12:14:08;6.00;;;1.48;;
62915;SDS011;49010;51.230;-2.306;2022-08-19T12:17:55;6.80;;;1.65;;
62915;SDS011;49010;51.230;-2.306;2022-08-19T12:21:38;5.65;;;1.48;;
62915;SDS011;49010;51.230;-2.306;2022-08-19T12:25:20;5.47;;;1.60;;
62915;SDS011;49010;51.230;-2.306;2022-08-19T12:29:03;5.40;;;1.48;;
62915;SDS011;49010;51.230;-2.306;2022-08-19T12:32:45;5.43;;;1.52;;
62915;SDS011;49010;51.230;-2.306;2022-08-19T12:36:27;4.20;;;1.13;;
62915;SDS011;49010;51.230;-2.306;2022-08-19T12:40:10;7.03;;;1.40;;
62915;SDS011;49010;51.230;-2.306;2022-08-19T12:43:53;4.00;;;1.35;;
62915;SDS011;49010;51.230;-2.306;2022-08-19T12:47:35;6.20;;;1.45;;
62915;SDS011;49010;51.230;-2.306;2022-08-19T12:51:21;7.05;;;1.75;;
62915;SDS011;49010;51.230;-2.306;2022-08-19T12:55:04;9.68;;;1.60;;
62915;SDS011;49010;51.230;-2.306;2022-08-19T12:58:48;6.38;;;1.35;;
62915;SDS011;49010;51.230;-2.306;2022-08-19T13:02:33;5.28;;;1.73;;
62915;SDS011;49010;51.230;-2.306;2022-08-19T13:06:19;6.40;;;2.05;;
62915;SDS011;49010;51.230;-2.306;2022-08-19T13:10:05;7.57;;;1.40;;
62915;SDS011;49010;51.230;-2.306;2022-08-19T13:13:50;9.10;;;1.55;;
62915;SDS011;49010;51.230;-2.306;2022-08-19T13:17:33;6.03;;;1.38;;
62915;SDS011;49010;51.230;-2.306;2022-08-19T13:21:15;8.45;;;2.00;;
62915;SDS011;49010;51.230;-2.306;2022-08-19T13:25:01;7.80;;;1.83;;
62915;SDS011;49010;51.230;-2.306;2022-08-19T13:28:44;6.05;;;1.40;;
62915;SDS011;49010;51.230;-2.306;2022-08-19T13:32:45;5.22;;;1.40;;
62915;SDS011;49010;51.230;-2.306;2022-08-19T13:36:45;6.70;;;1.70;;
62915;SDS011;49010;51.230;-2.306;2022-08-19T13:40:27;6.32;;;1.83;;
62915;SDS011;49010;51.230;-2.306;2022-08-19T13:44:10;8.35;;;1.85;;
62915;SDS011;49010;51.230;-2.306;2022-08-19T13:47:52;6.18;;;1.70;;
62915;SDS011;49010;51.230;-2.306;2022-08-19T13:51:40;11.68;;;2.28;;
62915;SDS011;49010;51.230;-2.306;2022-08-19T13:55:23;6.93;;;1.88;;
62915;SDS011;49010;51.230;-2.306;2022-08-19T13:59:07;6.50;;;2.10;;
62915;SDS011;49010;51.230;-2.306;2022-08-19T14:02:50;7.85;;;1.98;;
62915;SDS011;49010;51.230;-2.306;2022-08-19T14:06:34;11.43;;;2.45;;
62915;SDS011;49010;51.230;-2.306;2022-08-19T14:10:16;7.85;;;2.13;;
62915;SDS011;49010;51.230;-2.306;2022-08-19T14:13:59;8.38;;;1.60;;
62915;SDS011;49010;51.230;-2.306;2022-08-19T14:17:42;5.57;;;1.98;;
62915;SDS011;49010;51.230;-2.306;2022-08-19T14:21:25;6.10;;;1.80;;
62915;SDS011;49010;51.230;-2.306;2022-08-19T14:25:08;9.65;;;2.30;;
62915;SDS011;49010;51.230;-2.306;2022-08-19T14:28:53;6.47;;;1.65;;
62915;SDS011;49010;51.230;-2.306;2022-08-19T14:32:38;4.57;;;1.60;;
62915;SDS011;49010;51.230;-2.306;2022-08-19T14:36:21;7.15;;;1.88;;
62915;SDS011;49010;51.230;-2.306;2022-08-19T14:40:03;6.38;;;1.67;;
62915;SDS011;49010;51.230;-2.306;2022-08-19T14:43:46;5.38;;;1.48;;
62915;SDS011;49010;51.230;-2.306;2022-08-19T14:51:13;8.65;;;1.63;;
62915;SDS011;49010;51.230;-2.306;2022-08-19T14:54:55;8.20;;;1.55;;
62915;SDS011;49010;51.230;-2.306;2022-08-19T14:58:38;6.60;;;1.27;;
62915;SDS011;49010;51.230;-2.306;2022-08-19T15:02:23;6.50;;;1.40;;
62915;SDS011;49010;51.230;-2.306;2022-08-19T15:06:15;3.92;;;1.25;;
62915;SDS011;49010;51.230;-2.306;2022-08-19T15:09:57;8.10;;;1.70;;
62915;SDS011;49010;51.230;-2.306;2022-08-19T15:13:40;4.22;;;1.35;;
62915;SDS011;49010;51.230;-2.306;2022-08-19T15:17:22;5.43;;;1.20;;
62915;SDS011;49010;51.230;-2.306;2022-08-19T15:21:25;5.60;;;1.63;;
62915;SDS011;49010;51.230;-2.306;2022-08-19T15:25:09;4.85;;;1.25;;
62915;SDS011;49010;51.230;-2.306;2022-08-19T15:28:52;10.68;;;1.65;;
62915;SDS011;49010;51.230;-2.306;2022-08-19T15:32:34;5.05;;;1.42;;
62915;SDS011;49010;51.230;-2.306;2022-08-19T15:36:17;5.20;;;1.60;;
62915;SDS011;49010;51.230;-2.306;2022-08-19T15:39:59;5.32;;;1.25;;
62915;SDS011;49010;51.230;-2.306;2022-08-19T15:43:41;3.97;;;0.98;;
62915;SDS011;49010;51.230;-2.306;2022-08-19T15:47:23;3.47;;;1.02;;
62915;SDS011;49010;51.230;-2.306;2022-08-19T15:51:05;3.15;;;0.80;;
62915;SDS011;49010;51.230;-2.306;2022-08-19T15:54:46;5.10;;;1.25;;
62915;SDS011;49010;51.230;-2.306;2022-08-19T15:58:28;3.92;;;1.02;;
62915;SDS011;49010;51.230;-2.306;2022-08-19T16:02:29;3.72;;;0.90;;
62915;SDS011;49010;51.230;-2.306;2022-08-19T16:06:34;2.55;;;0.75;;
62915;SDS011;49010;51.230;-2.306;2022-08-19T16:10:16;2.13;;;0.65;;
62915;SDS011;49010;51.230;-2.306;2022-08-19T16:14:07;3.08;;;0.98;;
62915;SDS011;49010;51.230;-2.306;2022-08-19T16:17:49;4.63;;;1.00;;
62915;SDS011;49010;51.230;-2.306;2022-08-19T16:21:37;4.28;;;1.10;;
62915;SDS011;49010;51.230;-2.306;2022-08-19T16:25:22;9.82;;;1.33;;
62915;SDS011;49010;51.230;-2.306;2022-08-19T16:29:08;4.97;;;1.05;;
62915;SDS011;49010;51.230;-2.306;2022-08-19T16:32:53;4.03;;;1.00;;
62915;SDS011;49010;51.230;-2.306;2022-08-19T16:36:35;3.67;;;0.90;;
62915;SDS011;49010;51.230;-2.306;2022-08-19T16:40:17;3.88;;;1.02;;
62915;SDS011;49010;51.230;-2.306;2022-08-19T16:43:59;4.70;;;1.13;;
62915;SDS011;49010;51.230;-2.306;2022-08-19T16:47:41;6.03;;;1.42;;
62915;SDS011;49010;51.230;-2.306;2022-08-19T16:51:23;3.53;;;1.15;;
62915;SDS011;49010;51.230;-2.306;2022-08-19T16:55:05;7.88;;;1.55;;
62915;SDS011;49010;51.230;-2.306;2022-08-19T16:58:48;6.47;;;1.10;;
62915;SDS011;49010;51.230;-2.306;2022-08-19T17:02:30;6.90;;;1.40;;
62915;SDS011;49010;51.230;-2.306;2022-08-19T17:06:14;5.18;;;1.60;;
62915;SDS011;49010;51.230;-2.306;2022-08-19T17:10:02;2.92;;;1.00;;
62915;SDS011;49010;51.230;-2.306;2022-08-19T17:13:46;2.97;;;0.80;;
62915;SDS011;49010;51.230;-2.306;2022-08-19T17:17:29;4.28;;;0.60;;
62915;SDS011;49010;51.230;-2.306;2022-08-19T17:21:11;4.63;;;1.20;;
62915;SDS011;49010;51.230;-2.306;2022-08-19T17:24:53;2.28;;;0.75;;
62915;SDS011;49010;51.230;-2.306;2022-08-19T17:28:38;3.78;;;0.90;;
62915;SDS011;49010;51.230;-2.306;2022-08-19T17:32:23;4.15;;;1.02;;
62915;SDS011;49010;51.230;-2.306;2022-08-19T17:36:05;5.78;;;1.10;;
62915;SDS011;49010;51.230;-2.306;2022-08-19T17:39:48;3.75;;;1.08;;
62915;SDS011;49010;51.230;-2.306;2022-08-19T17:43:31;3.22;;;0.70;;
62915;SDS011;49010;51.230;-2.306;2022-08-19T17:47:20;4.95;;;0.70;;
62915;SDS011;49010;51.230;-2.306;2022-08-19T17:51:11;4.20;;;0.70;;
62915;SDS011;49010;51.230;-2.306;2022-08-19T17:55:12;3.30;;;0.90;;
62915;SDS011;49010;51.230;-2.306;2022-08-19T17:58:54;3.00;;;0.70;;
62915;SDS011;49010;51.230;-2.306;2022-08-19T18:02:51;3.67;;;0.95;;
62915;SDS011;49010;51.230;-2.306;2022-08-19T18:06:35;7.32;;;1.10;;
62915;SDS011;49010;51.230;-2.306;2022-08-19T18:10:18;5.18;;;1.35;;
62915;SDS011;49010;51.230;-2.306;2022-08-19T18:14:01;2.75;;;0.75;;
62915;SDS011;49010;51.230;-2.306;2022-08-19T18:17:43;4.88;;;1.25;;
62915;SDS011;49010;51.230;-2.306;2022-08-19T18:21:25;4.32;;;1.35;;
62915;SDS011;49010;51.230;-2.306;2022-08-19T18:29:02;4.00;;;1.10;;
62915;SDS011;49010;51.230;-2.306;2022-08-19T18:32:44;5.00;;;1.30;;
62915;SDS011;49010;51.230;-2.306;2022-08-19T18:36:29;4.20;;;0.90;;
62915;SDS011;49010;51.230;-2.306;2022-08-19T18:40:33;6.65;;;1.10;;
62915;SDS011;49010;51.230;-2.306;2022-08-19T18:44:34;2.55;;;0.93;;
62915;SDS011;49010;51.230;-2.306;2022-08-19T18:48:40;5.47;;;1.35;;
62915;SDS011;49010;51.230;-2.306;2022-08-19T18:52:40;2.55;;;0.73;;
62915;SDS011;49010;51.230;-2.306;2022-08-19T18:56:22;12.68;;;1.38;;
62915;SDS011;49010;51.230;-2.306;2022-08-19T19:00:09;2.83;;;0.95;;
62915;SDS011;49010;51.230;-2.306;2022-08-19T19:03:51;3.53;;;0.93;;
62915;SDS011;49010;51.230;-2.306;2022-08-19T19:07:34;5.60;;;0.80;;
62915;SDS011;49010;51.230;-2.306;2022-08-19T19:11:17;5.38;;;1.40;;
62915;SDS011;49010;51.230;-2.306;2022-08-19T19:15:03;7.97;;;3.05;;
62915;SDS011;49010;51.230;-2.306;2022-08-19T19:18:46;7.25;;;4.05;;
62915;SDS011;49010;51.230;-2.306;2022-08-19T19:22:33;15.35;;;7.63;;
62915;SDS011;49010;51.230;-2.306;2022-08-19T19:26:14;6.88;;;2.92;;
62915;SDS011;49010;51.230;-2.306;2022-08-19T19:29:57;7.13;;;2.30;;
62915;SDS011;49010;51.230;-2.306;2022-08-19T19:33:39;5.85;;;1.38;;
62915;SDS011;49010;51.230;-2.306;2022-08-19T19:37:22;7.40;;;1.60;;
62915;SDS011;49010;51.230;-2.306;2022-08-19T19:41:04;4.78;;;1.33;;
62915;SDS011;49010;51.230;-2.306;2022-08-19T19:44:46;5.13;;;0.95;;
62915;SDS011;49010;51.230;-2.306;2022-08-19T19:48:31;6.07;;;1.17;;
62915;SDS011;49010;51.230;-2.306;2022-08-19T19:52:13;2.85;;;0.75;;
62915;SDS011;49010;51.230;-2.306;2022-08-19T19:55:55;5.75;;;1.08;;
62915;SDS011;49010;51.230;-2.306;2022-08-19T19:59:42;3.63;;;1.00;;
62915;SDS011;49010;51.230;-2.306;2022-08-19T20:03:32;2.75;;;0.77;;
62915;SDS011;49010;51.230;-2.306;2022-08-19T20:07:14;3.40;;;0.90;;
62915;SDS011;49010;51.230;-2.306;2022-08-19T20:10:59;5.38;;;1.08;;
62915;SDS011;49010;51.230;-2.306;2022-08-19T20:14:42;4.78;;;1.17;;
62915;SDS011;49010;51.230;-2.306;2022-08-19T20:18:24;4.00;;;1.23;;
62915;SDS011;49010;51.230;-2.306;2022-08-19T20:22:06;4.00;;;1.10;;
62915;SDS011;49010;51.230;-2.306;2022-08-19T20:25:48;5.43;;;1.08;;
62915;SDS011;49010;51.230;-2.306;2022-08-19T20:29:31;4.03;;;1.40;;
62915;SDS011;49010;51.230;-2.306;2022-08-19T20:33:20;7.53;;;1.83;;
62915;SDS011;49010;51.230;-2.306;2022-08-19T20:37:02;6.55;;;1.40;;
62915;SDS011;49010;51.230;-2.306;2022-08-19T20:40:44;7.93;;;2.85;;
62915;SDS011;49010;51.230;-2.306;2022-08-19T20:44:26;7.10;;;3.10;;
62915;SDS011;49010;51.230;-2.306;2022-08-19T20:48:08;11.23;;;3.95;;
62915;SDS011;49010;51.230;-2.306;2022-08-19T20:51:52;9.63;;;3.75;;
62915;SDS011;49010;51.230;-2.306;2022-08-19T20:55:35;6.68;;;3.15;;
62915;SDS011;49010;51.230;-2.306;2022-08-19T20:59:18;9.50;;;3.30;;
62915;SDS011;49010;51.230;-2.306;2022-08-19T21:03:00;9.70;;;3.67;;
62915;SDS011;49010;51.230;-2.306;2022-08-19T21:06:42;7.80;;;3.20;;
62915;SDS011;49010;51.230;-2.306;2022-08-19T21:10:26;10.38;;;3.47;;
62915;SDS011;49010;51.230;-2.306;2022-08-19T21:14:08;6.82;;;1.70;;
62915;SDS011;49010;51.230;-2.306;2022-08-19T21:17:50;6.13;;;1.60;;
62915;SDS011;49010;51.230;-2.306;2022-08-19T21:21:32;6.55;;;1.25;;
62915;SDS011;49010;51.230;-2.306;2022-08-19T21:25:16;7.07;;;1.33;;
62915;SDS011;49010;51.230;-2.306;2022-08-19T21:28:58;7.55;;;1.60;;
62915;SDS011;49010;51.230;-2.306;2022-08-19T21:32:40;7.13;;;1.50;;
62915;SDS011;49010;51.230;-2.306;2022-08-19T21:36:22;6.20;;;1.92;;
62915;SDS011;49010;51.230;-2.306;2022-08-19T21:40:04;10.30;;;2.97;;
62915;SDS011;49010;51.230;-2.306;2022-08-19T21:43:48;8.35;;;2.40;;
62915;SDS011;49010;51.230;-2.306;2022-08-19T21:47:30;10.70;;;3.20;;
62915;SDS011;49010;51.230;-2.306;2022-08-19T21:51:12;7.18;;;2.65;;
62915;SDS011;49010;51.230;-2.306;2022-08-19T21:54:54;4.78;;;1.75;;
62915;SDS011;49010;51.230;-2.306;2022-08-19T21:58:36;5.50;;;1.65;;
62915;SDS011;49010;51.230;-2.306;2022-08-19T22:02:19;8.95;;;2.08;;
62915;SDS011;49010;51.230;-2.306;2022-08-19T22:06:02;6.40;;;1.58;;
62915;SDS011;49010;51.230;-2.306;2022-08-19T22:09:44;6.05;;;1.75;;
62915;SDS011;49010;51.230;-2.306;2022-08-19T22:13:28;10.15;;;1.60;;
62915;SDS011;49010;51.230;-2.306;2022-08-19T22:17:20;10.30;;;2.63;;
62915;SDS011;49010;51.230;-2.306;2022-08-19T22:21:03;7.65;;;2.88;;
62915;SDS011;49010;51.230;-2.306;2022-08-19T22:24:53;6.97;;;2.05;;
62915;SDS011;49010;51.230;-2.306;2022-08-19T22:28:41;6.00;;;1.85;;
62915;SDS011;49010;51.230;-2.306;2022-08-19T22:32:23;6.15;;;1.60;;
62915;SDS011;49010;51.230;-2.306;2022-08-19T22:36:08;9.52;;;1.95;;